createdAt,value
2022-10-13T03:00:29.341Z,28.13
2022-10-13T03:02:59.192Z,26.30
2022-10-13T03:05:27.685Z,21.10
2022-10-13T03:07:56.011Z,24.17
2022-10-13T03:10:24.565Z,30.87
2022-10-13T03:12:53.371Z,19.90
2022-10-13T03:15:21.796Z,21.73
2022-10-13T03:17:51.245Z,20.73
2022-10-13T03:20:22.168Z,21.10
2022-10-13T03:22:50.783Z,25.50
2022-10-13T03:25:19.359Z,20.50
2022-10-13T03:27:47.681Z,22.93
2022-10-13T03:30:16.083Z,21.40
2022-10-13T03:32:44.589Z,22.70
2022-10-13T03:35:12.948Z,20.50
2022-10-13T03:37:42.659Z,21.00
2022-10-13T03:40:12.714Z,20.67
2022-10-13T03:42:41.629Z,23.23
2022-10-13T03:45:11.047Z,19.10
2022-10-13T03:47:39.512Z,22.30
2022-10-13T03:50:10.813Z,23.30
2022-10-13T03:52:39.496Z,17.90
2022-10-13T03:55:09.913Z,21.90
2022-10-13T03:57:38.295Z,19.07
2022-10-13T04:00:10.741Z,18.70
2022-10-13T04:02:40.966Z,22.20
2022-10-13T04:05:10.554Z,19.30
2022-10-13T04:07:38.974Z,23.43
2022-10-13T04:10:21.176Z,21.00
2022-10-13T04:12:50.984Z,22.13
2022-10-13T04:15:19.499Z,26.60
2022-10-13T04:17:47.916Z,25.60
2022-10-13T04:20:16.730Z,23.87
2022-10-13T04:22:45.106Z,26.60
2022-10-13T04:25:13.562Z,23.40
2022-10-13T04:27:43.284Z,25.00
2022-10-13T04:30:13.681Z,22.70
2022-10-13T04:32:42.098Z,24.60
2022-10-13T04:35:13.090Z,25.03
2022-10-13T04:37:44.944Z,23.07
2022-10-13T04:40:14.171Z,27.57
2022-10-13T04:42:43.939Z,20.07
2022-10-13T04:45:12.624Z,22.27
2022-10-13T04:47:43.176Z,26.53
2022-10-13T04:50:12.107Z,22.83
2022-10-13T04:52:40.489Z,25.30
2022-10-13T04:55:10.271Z,29.00
2022-10-13T04:57:38.649Z,26.30
2022-10-13T05:00:10.577Z,21.90
2022-10-13T05:02:39.623Z,21.00
2022-10-13T05:05:09.431Z,26.57
2022-10-13T05:07:37.748Z,22.23
2022-10-13T05:10:07.062Z,18.87
2022-10-13T05:12:35.666Z,21.10
2022-10-13T05:15:04.287Z,18.97
2022-10-13T05:17:35.508Z,20.70
2022-10-13T05:20:11.365Z,19.80
2022-10-13T05:22:39.697Z,18.90
2022-10-13T05:25:08.874Z,20.47
2022-10-13T05:27:37.373Z,16.03
2022-10-13T05:30:10.527Z,19.07
2022-10-13T05:32:40.249Z,20.13
2022-10-13T05:35:10.831Z,16.57
2022-10-13T05:37:41.982Z,17.63
2022-10-13T05:40:11.996Z,16.33
2022-10-13T05:42:40.476Z,16.30
2022-10-13T05:45:12.664Z,16.30
2022-10-13T05:47:42.382Z,14.53
2022-10-13T05:50:11.689Z,16.43
2022-10-13T05:52:41.676Z,17.63
2022-10-13T05:55:14.580Z,19.40
2022-10-13T05:57:47.210Z,14.03
2022-10-13T06:00:19.626Z,14.93
2022-10-13T06:02:54.996Z,14.23
2022-10-13T06:05:25.998Z,16.40
2022-10-13T06:07:56.844Z,14.67
2022-10-13T06:10:25.531Z,18.20
2022-10-13T06:12:53.922Z,18.57
2022-10-13T06:15:27.826Z,21.13
2022-10-13T06:17:59.326Z,20.00
2022-10-13T06:20:28.584Z,21.67
2022-10-13T06:22:57.287Z,18.47
2022-10-13T06:25:25.789Z,18.30
2022-10-13T06:27:54.229Z,26.10
2022-10-13T06:30:22.721Z,20.33
2022-10-13T06:32:51.141Z,20.83
2022-10-13T06:35:20.905Z,20.60
2022-10-13T06:37:49.257Z,25.23
2022-10-13T06:40:18.223Z,23.70
2022-10-13T06:42:51.416Z,20.67
2022-10-13T06:45:23.677Z,24.70
2022-10-13T06:47:54.402Z,22.90
2022-10-13T06:50:24.733Z,23.50
2022-10-13T06:52:53.236Z,23.70
2022-10-13T06:55:21.608Z,23.47
2022-10-13T06:57:50.022Z,24.00
2022-10-13T07:00:19.011Z,23.90
2022-10-13T07:02:52.419Z,24.83
2022-10-13T07:05:20.886Z,25.03
2022-10-13T07:07:54.003Z,25.63
2022-10-13T07:10:22.523Z,26.33
2022-10-13T07:12:51.015Z,28.17
2022-10-13T07:15:19.474Z,31.40
2022-10-13T07:17:51.970Z,28.40
2022-10-13T07:20:20.622Z,33.70
2022-10-13T07:22:50.444Z,30.90
2022-10-13T07:25:21.221Z,32.83
2022-10-13T07:27:50.141Z,36.27
2022-10-13T07:30:18.627Z,36.10
2022-10-13T07:32:48.404Z,30.73
2022-10-13T07:35:17.133Z,26.67
2022-10-13T07:37:45.674Z,21.93
2022-10-13T07:40:15.474Z,26.27
2022-10-13T07:42:43.930Z,23.73
2022-10-13T07:45:12.652Z,20.17
2022-10-13T07:47:41.038Z,25.00
2022-10-13T07:50:10.706Z,28.50
2022-10-13T07:52:39.144Z,24.30
2022-10-13T07:55:09.499Z,23.73
2022-10-13T07:57:39.310Z,24.90
2022-10-13T08:00:09.819Z,26.20
2022-10-13T08:02:41.104Z,25.63
2022-10-13T08:05:10.189Z,29.90
2022-10-13T08:07:39.349Z,26.17
2022-10-13T08:10:09.814Z,26.37
2022-10-13T08:12:39.647Z,23.50
2022-10-13T08:15:10.361Z,28.10
2022-10-13T08:17:39.032Z,27.43
2022-10-13T08:20:08.854Z,27.63
2022-10-13T08:22:37.229Z,31.40
2022-10-13T08:25:07.228Z,25.83
2022-10-13T08:27:50.786Z,27.53
2022-10-13T08:30:20.540Z,29.30
2022-10-13T08:32:49.044Z,28.17
2022-10-13T08:35:17.475Z,30.53
2022-10-13T08:37:45.854Z,31.90
2022-10-13T08:40:18.674Z,29.27
2022-10-13T08:42:48.802Z,32.50
2022-10-13T08:45:40.265Z,26.77
2022-10-13T08:48:15.235Z,27.60
2022-10-13T08:50:47.235Z,30.23
2022-10-13T08:53:26.107Z,31.93
2022-10-13T08:55:59.338Z,31.53
2022-10-13T08:58:34.094Z,30.93
2022-10-13T09:01:14.282Z,27.93
2022-10-13T09:03:54.310Z,30.30
2022-10-13T09:06:28.565Z,31.73
2022-10-13T09:09:00.914Z,32.57
2022-10-13T09:11:32.372Z,36.80
2022-10-13T09:14:08.109Z,29.00
2022-10-13T09:16:39.100Z,31.37
2022-10-13T09:19:21.520Z,30.07
2022-10-13T09:21:50.437Z,33.50
2022-10-13T09:24:21.255Z,36.60
2022-10-13T09:26:53.385Z,39.40
2022-10-13T09:29:27.520Z,35.87
2022-10-13T09:32:15.066Z,36.47
2022-10-13T09:34:43.562Z,39.73
2022-10-13T09:37:21.568Z,35.00
2022-10-13T09:40:03.387Z,35.63
2022-10-13T09:42:33.104Z,34.03
2022-10-13T09:45:16.106Z,34.67
2022-10-13T09:47:52.176Z,33.87
2022-10-13T09:50:23.863Z,39.30
2022-10-13T09:52:54.033Z,31.40
2022-10-13T09:55:33.450Z,37.57
2022-10-13T09:58:07.957Z,35.33
2022-10-13T10:00:39.868Z,38.17
2022-10-13T10:03:18.549Z,40.27
2022-10-13T10:05:52.436Z,34.87
2022-10-13T10:08:33.522Z,38.60
2022-10-13T10:11:05.036Z,39.13
2022-10-13T10:13:33.402Z,35.77
2022-10-13T10:16:09.080Z,42.90
2022-10-13T10:18:44.142Z,35.17
2022-10-13T10:21:23.489Z,40.90
2022-10-13T10:24:01.697Z,36.00
2022-10-13T10:26:45.540Z,36.10
2022-10-13T10:29:25.277Z,36.50
2022-10-13T10:32:23.325Z,34.37
2022-10-13T10:34:58.508Z,38.80
2022-10-13T10:37:51.021Z,33.80
2022-10-13T10:40:33.924Z,37.90
2022-10-13T10:43:34.042Z,36.87
2022-10-13T10:46:02.469Z,35.63
2022-10-13T10:48:39.345Z,29.93
2022-10-13T10:51:09.896Z,42.87
2022-10-13T10:53:46.576Z,36.77
2022-10-13T10:56:20.970Z,38.27
2022-10-13T10:58:55.946Z,29.63
2022-10-13T11:01:37.922Z,32.00
2022-10-13T11:04:41.358Z,30.10
2022-10-13T11:07:16.115Z,31.53
2022-10-13T11:10:21.459Z,37.93
2022-10-13T11:13:22.422Z,33.10
2022-10-13T11:15:51.381Z,27.67
2022-10-13T11:19:05.751Z,29.90
2022-10-13T11:22:24.594Z,28.90
2022-10-13T11:25:09.728Z,35.20
2022-10-13T11:27:43.999Z,29.60
2022-10-13T11:30:44.375Z,34.80
2022-10-13T11:33:53.636Z,33.70
2022-10-13T11:36:55.662Z,31.40
2022-10-13T11:40:01.098Z,31.40
2022-10-13T11:43:17.498Z,29.20
2022-10-13T11:46:33.050Z,27.27
2022-10-13T11:49:26.188Z,28.77
2022-10-13T11:52:27.566Z,24.63
2022-10-13T11:55:08.086Z,32.33
2022-10-13T11:57:36.578Z,33.30
